Bataysk — UBXE3 — position and weather

sailwx.info

Track history (hours):
 
Tides and Currents Weather Stations Pressure Air Temp Water Temp Dewpoint Dewpoint Depression Visibility Wind Speed Wind Dir Waves Ship Positions

Bataysk

Last reported at 2018-May-19 04:44 UTC. Time now 2018-May-23 09:25 UTC.
Position N 45°34' E 036°49'.

Length 130 m; draft 2.7 m.

Type: Cargo ship. MMSI: 273347320.

Date/timePositionNaut miles runAvg speedWind from/ knotsBaromVisibWave heightAir tempDewpointWater temp
2018-May-19 04:44N 45°34' E 036°49'3 6.3
2018-May-19 04:18N 45°31' E 036°46'2 6.3
2018-May-19 04:00N 45°30' E 036°45'3 6.2
2018-May-19 03:30N 45°27' E 036°42'3 6.8
2018-May-19 03:00N 45°24' E 036°41'3 6.3
2018-May-19 02:30N 45°21' E 036°40'4 7.2
2018-May-19 02:00N 45°19' E 036°35'4 7.8
2018-May-19 01:29N 45°18' E 036°30'3 7.0
2018-May-19 01:01N 45°15' E 036°29'4 7.5
2018-May-19 00:29N 45°11' E 036°31'3 0.4
2018-May-18 17:11N 45°09' E 036°33'0 0.1
2018-May-18 14:24N 45°09' E 036°33'3 6.0
2018-May-18 13:55N 45°10' E 036°29'2 5.5
2018-May-18 13:30N 45°13' E 036°28'3 6.3
2018-May-18 13:00N 45°16' E 036°28'3 5.8
2018-May-18 12:30N 45°18' E 036°30'3 6.8
2018-May-18 12:00N 45°20' E 036°34'3 6.4
2018-May-18 11:30N 45°21' E 036°39'3 6.5
2018-May-18 11:00N 45°24' E 036°41'  
2018-May-14 02:54N 45°30' E 036°43'2 6.0
2018-May-14 02:30N 45°27' E 036°42'3 6.2
2018-May-14 02:00N 45°24' E 036°41'3 6.0
2018-May-14 01:30N 45°21' E 036°40'3 5.6
2018-May-14 01:00N 45°20' E 036°37'3 6.9
2018-May-14 00:30N 45°19' E 036°32'3 6.1
2018-May-14 00:00N 45°17' E 036°29'2 4.7
2018-May-13 23:30N 45°14' E 036°30'0 0.2
2018-May-13 22:58N 45°14' E 036°30'0 0.0
2018-May-13 22:26N 45°14' E 036°30'2 4.4
2018-May-13 22:00N 45°13' E 036°31'4 7.6
2018-May-13 21:30N 45°09' E 036°32'1 0.1
2018-May-13 13:51N 45°08' E 036°33'3 7.8
2018-May-13 13:29N 45°09' E 036°30'3 6.3
2018-May-13 13:01N 45°12' E 036°28'3 6.3
2018-May-13 12:30N 45°15' E 036°28'3 6.1
2018-May-13 12:01N 45°18' E 036°29'3 5.9
2018-May-13 11:30N 45°19' E 036°33'3 5.5
2018-May-13 11:00N 45°20' E 036°37'3 5.5
2018-May-13 10:31N 45°22' E 036°40'2 4.3
2018-May-13 10:01N 45°24' E 036°41'3 6.8
2018-May-13 09:30N 45°27' E 036°41'2 4.4
2018-May-13 09:01N 45°29' E 036°39'2 0.9
2018-May-13 07:19N 45°29' E 036°37'0 0.1
2018-May-13 06:49N 45°29' E 036°37'0 0.0
2018-May-13 01:40N 45°29' E 036°37'0 0.0
2018-May-13 01:28N 45°29' E 036°37'0 0.0
2018-May-13 00:49N 45°29' E 036°37'0 0.0
2018-May-13 00:23N 45°29' E 036°37'0 0.1
2018-May-12 22:07N 45°30' E 036°38'1 4.5
2018-May-12 22:00N 45°30' E 036°38'3 5.7
2018-May-12 21:25N 45°33' E 036°41'  
Track history (hours):
 
Tides and Currents Weather Stations Pressure Air Temp Water Temp Dewpoint Dewpoint Depression Visibility Wind Speed Wind Dir Waves Ship Positions

Bataysk

Last reported at 2018-May-19 04:44 UTC. Time now 2018-May-23 09:25 UTC.
Position N 45°34' E 036°49'.

Length 130 m; draft 2.7 m.

Type: Cargo ship. MMSI: 273347320.

Date/timePositionNaut miles runAvg speedWind from/ knotsBaromVisibWave heightAir tempDewpointWater temp
2018-May-19 04:44N 45°34' E 036°49'3 6.3
2018-May-19 04:18N 45°31' E 036°46'2 6.3
2018-May-19 04:00N 45°30' E 036°45'3 6.2
2018-May-19 03:30N 45°27' E 036°42'3 6.8
2018-May-19 03:00N 45°24' E 036°41'3 6.3
2018-May-19 02:30N 45°21' E 036°40'4 7.2
2018-May-19 02:00N 45°19' E 036°35'4 7.8
2018-May-19 01:29N 45°18' E 036°30'3 7.0
2018-May-19 01:01N 45°15' E 036°29'4 7.5
2018-May-19 00:29N 45°11' E 036°31'3 0.4
2018-May-18 17:11N 45°09' E 036°33'0 0.1
2018-May-18 14:24N 45°09' E 036°33'3 6.0
2018-May-18 13:55N 45°10' E 036°29'2 5.5
2018-May-18 13:30N 45°13' E 036°28'3 6.3
2018-May-18 13:00N 45°16' E 036°28'3 5.8
2018-May-18 12:30N 45°18' E 036°30'3 6.8
2018-May-18 12:00N 45°20' E 036°34'3 6.4
2018-May-18 11:30N 45°21' E 036°39'3 6.5
2018-May-18 11:00N 45°24' E 036°41'  
2018-May-14 02:54N 45°30' E 036°43'2 6.0
2018-May-14 02:30N 45°27' E 036°42'3 6.2
2018-May-14 02:00N 45°24' E 036°41'3 6.0
2018-May-14 01:30N 45°21' E 036°40'3 5.6
2018-May-14 01:00N 45°20' E 036°37'3 6.9
2018-May-14 00:30N 45°19' E 036°32'3 6.1
2018-May-14 00:00N 45°17' E 036°29'2 4.7
2018-May-13 23:30N 45°14' E 036°30'0 0.2
2018-May-13 22:58N 45°14' E 036°30'0 0.0
2018-May-13 22:26N 45°14' E 036°30'2 4.4
2018-May-13 22:00N 45°13' E 036°31'4 7.6
2018-May-13 21:30N 45°09' E 036°32'1 0.1
2018-May-13 13:51N 45°08' E 036°33'3 7.8
2018-May-13 13:29N 45°09' E 036°30'3 6.3
2018-May-13 13:01N 45°12' E 036°28'3 6.3
2018-May-13 12:30N 45°15' E 036°28'3 6.1
2018-May-13 12:01N 45°18' E 036°29'3 5.9
2018-May-13 11:30N 45°19' E 036°33'3 5.5
2018-May-13 11:00N 45°20' E 036°37'3 5.5
2018-May-13 10:31N 45°22' E 036°40'2 4.3
2018-May-13 10:01N 45°24' E 036°41'3 6.8
2018-May-13 09:30N 45°27' E 036°41'2 4.4
2018-May-13 09:01N 45°29' E 036°39'2 0.9
2018-May-13 07:19N 45°29' E 036°37'0 0.1
2018-May-13 06:49N 45°29' E 036°37'0 0.0
2018-May-13 01:40N 45°29' E 036°37'0 0.0
2018-May-13 01:28N 45°29' E 036°37'0 0.0
2018-May-13 00:49N 45°29' E 036°37'0 0.0
2018-May-13 00:23N 45°29' E 036°37'0 0.1
2018-May-12 22:07N 45°30' E 036°38'1 4.5
2018-May-12 22:00N 45°30' E 036°38'3 5.7
2018-May-12 21:25N 45°33' E 036°41'  

Dump ship's entire track history